sensor_id;sensor_type;location;lat;lon;timestamp;P1;durP1;ratioP1;P2;durP2;ratioP2
3022;SDS011;1521;53.584;9.938;2023-04-03T00:00:03;7.27;;;2.93;;
3022;SDS011;1521;53.584;9.938;2023-04-03T00:02:30;4.37;;;2.33;;
3022;SDS011;1521;53.584;9.938;2023-04-03T00:04:56;4.53;;;2.60;;
3022;SDS011;1521;53.584;9.938;2023-04-03T00:07:21;8.40;;;3.13;;
3022;SDS011;1521;53.584;9.938;2023-04-03T00:09:47;4.07;;;2.70;;
3022;SDS011;1521;53.584;9.938;2023-04-03T00:12:12;15.53;;;3.27;;
3022;SDS011;1521;53.584;9.938;2023-04-03T00:14:38;7.07;;;2.87;;
3022;SDS011;1521;53.584;9.938;2023-04-03T00:17:04;6.90;;;2.97;;
3022;SDS011;1521;53.584;9.938;2023-04-03T00:19:30;11.83;;;3.87;;
3022;SDS011;1521;53.584;9.938;2023-04-03T00:21:55;4.53;;;2.40;;
3022;SDS011;1521;53.584;9.938;2023-04-03T00:24:21;9.97;;;2.40;;
3022;SDS011;1521;53.584;9.938;2023-04-03T00:26:46;7.43;;;3.10;;
3022;SDS011;1521;53.584;9.938;2023-04-03T00:29:12;9.07;;;3.10;;
3022;SDS011;1521;53.584;9.938;2023-04-03T00:31:38;12.90;;;3.00;;
3022;SDS011;1521;53.584;9.938;2023-04-03T00:34:03;5.23;;;2.80;;
3022;SDS011;1521;53.584;9.938;2023-04-03T00:36:29;6.83;;;3.80;;
3022;SDS011;1521;53.584;9.938;2023-04-03T00:38:55;16.30;;;6.30;;
3022;SDS011;1521;53.584;9.938;2023-04-03T00:41:20;6.37;;;4.63;;
3022;SDS011;1521;53.584;9.938;2023-04-03T00:43:46;5.20;;;3.37;;
3022;SDS011;1521;53.584;9.938;2023-04-03T00:46:11;9.57;;;3.80;;
3022;SDS011;1521;53.584;9.938;2023-04-03T00:48:41;6.67;;;3.47;;
3022;SDS011;1521;53.584;9.938;2023-04-03T00:51:11;7.80;;;3.10;;
3022;SDS011;1521;53.584;9.938;2023-04-03T00:53:41;12.50;;;3.47;;
3022;SDS011;1521;53.584;9.938;2023-04-03T00:56:15;13.47;;;3.60;;
3022;SDS011;1521;53.584;9.938;2023-04-03T00:58:47;9.13;;;3.80;;
3022;SDS011;1521;53.584;9.938;2023-04-03T01:01:18;5.20;;;2.40;;
3022;SDS011;1521;53.584;9.938;2023-04-03T01:03:47;4.93;;;3.00;;
3022;SDS011;1521;53.584;9.938;2023-04-03T01:06:13;9.60;;;3.20;;
3022;SDS011;1521;53.584;9.938;2023-04-03T01:08:42;7.90;;;3.33;;
3022;SDS011;1521;53.584;9.938;2023-04-03T01:11:08;9.60;;;3.47;;
3022;SDS011;1521;53.584;9.938;2023-04-03T01:13:34;6.00;;;2.97;;
3022;SDS011;1521;53.584;9.938;2023-04-03T01:16:00;11.10;;;3.03;;
3022;SDS011;1521;53.584;9.938;2023-04-03T01:18:28;8.07;;;3.43;;
3022;SDS011;1521;53.584;9.938;2023-04-03T01:25:52;6.40;;;3.17;;
3022;SDS011;1521;53.584;9.938;2023-04-03T01:28:24;8.07;;;3.07;;
3022;SDS011;1521;53.584;9.938;2023-04-03T01:31:12;8.30;;;3.00;;
3022;SDS011;1521;53.584;9.938;2023-04-03T01:33:52;14.20;;;5.83;;
3022;SDS011;1521;53.584;9.938;2023-04-03T01:36:20;12.73;;;5.67;;
3022;SDS011;1521;53.584;9.938;2023-04-03T01:38:49;10.20;;;4.13;;
3022;SDS011;1521;53.584;9.938;2023-04-03T01:41:15;12.23;;;4.17;;
3022;SDS011;1521;53.584;9.938;2023-04-03T01:43:41;13.00;;;3.40;;
3022;SDS011;1521;53.584;9.938;2023-04-03T01:46:07;11.37;;;3.80;;
3022;SDS011;1521;53.584;9.938;2023-04-03T01:48:33;9.70;;;3.97;;
3022;SDS011;1521;53.584;9.938;2023-04-03T01:50:58;8.60;;;3.23;;
3022;SDS011;1521;53.584;9.938;2023-04-03T01:53:24;8.53;;;3.30;;
3022;SDS011;1521;53.584;9.938;2023-04-03T01:55:50;9.47;;;3.37;;
3022;SDS011;1521;53.584;9.938;2023-04-03T01:58:16;9.20;;;4.37;;
3022;SDS011;1521;53.584;9.938;2023-04-03T02:00:41;10.70;;;4.70;;
3022;SDS011;1521;53.584;9.938;2023-04-03T02:03:07;10.90;;;4.60;;
3022;SDS011;1521;53.584;9.938;2023-04-03T02:05:33;9.97;;;4.33;;
3022;SDS011;1521;53.584;9.938;2023-04-03T02:07:58;12.07;;;3.60;;
3022;SDS011;1521;53.584;9.938;2023-04-03T02:10:25;11.00;;;3.20;;
3022;SDS011;1521;53.584;9.938;2023-04-03T02:12:50;11.93;;;3.37;;
3022;SDS011;1521;53.584;9.938;2023-04-03T02:15:16;11.03;;;3.77;;
3022;SDS011;1521;53.584;9.938;2023-04-03T02:17:42;3.53;;;2.73;;
3022;SDS011;1521;53.584;9.938;2023-04-03T02:20:08;8.43;;;3.20;;
3022;SDS011;1521;53.584;9.938;2023-04-03T02:22:34;5.33;;;3.50;;
3022;SDS011;1521;53.584;9.938;2023-04-03T02:25:00;6.93;;;3.83;;
3022;SDS011;1521;53.584;9.938;2023-04-03T02:27:26;6.80;;;3.80;;
3022;SDS011;1521;53.584;9.938;2023-04-03T02:29:51;7.50;;;3.80;;
3022;SDS011;1521;53.584;9.938;2023-04-03T02:32:17;6.27;;;3.33;;
3022;SDS011;1521;53.584;9.938;2023-04-03T02:34:43;9.90;;;3.30;;
3022;SDS011;1521;53.584;9.938;2023-04-03T02:37:08;9.60;;;3.70;;
3022;SDS011;1521;53.584;9.938;2023-04-03T02:39:34;10.83;;;3.43;;
3022;SDS011;1521;53.584;9.938;2023-04-03T02:42:00;10.43;;;3.87;;
3022;SDS011;1521;53.584;9.938;2023-04-03T02:44:25;6.70;;;3.13;;
3022;SDS011;1521;53.584;9.938;2023-04-03T02:46:51;8.27;;;3.40;;
3022;SDS011;1521;53.584;9.938;2023-04-03T02:49:17;9.83;;;3.63;;
3022;SDS011;1521;53.584;9.938;2023-04-03T02:51:42;12.13;;;3.97;;
3022;SDS011;1521;53.584;9.938;2023-04-03T02:54:08;15.03;;;3.73;;
3022;SDS011;1521;53.584;9.938;2023-04-03T02:56:33;10.20;;;3.20;;
3022;SDS011;1521;53.584;9.938;2023-04-03T02:58:59;6.73;;;3.67;;
3022;SDS011;1521;53.584;9.938;2023-04-03T03:01:25;9.60;;;3.73;;
3022;SDS011;1521;53.584;9.938;2023-04-03T03:03:53;11.63;;;3.60;;
3022;SDS011;1521;53.584;9.938;2023-04-03T03:06:19;8.27;;;3.23;;
3022;SDS011;1521;53.584;9.938;2023-04-03T03:08:44;10.30;;;3.97;;
3022;SDS011;1521;53.584;9.938;2023-04-03T03:11:10;6.20;;;3.10;;
3022;SDS011;1521;53.584;9.938;2023-04-03T03:13:36;12.27;;;4.03;;
3022;SDS011;1521;53.584;9.938;2023-04-03T03:16:02;16.00;;;4.03;;
3022;SDS011;1521;53.584;9.938;2023-04-03T03:18:28;11.07;;;4.10;;
3022;SDS011;1521;53.584;9.938;2023-04-03T03:20:55;14.90;;;4.00;;
3022;SDS011;1521;53.584;9.938;2023-04-03T03:23:22;10.20;;;3.90;;
3022;SDS011;1521;53.584;9.938;2023-04-03T03:25:53;7.30;;;3.80;;
3022;SDS011;1521;53.584;9.938;2023-04-03T03:28:23;11.83;;;3.83;;
3022;SDS011;1521;53.584;9.938;2023-04-03T03:30:49;7.13;;;3.43;;
3022;SDS011;1521;53.584;9.938;2023-04-03T03:33:15;8.67;;;3.70;;
3022;SDS011;1521;53.584;9.938;2023-04-03T03:35:42;7.50;;;3.63;;
3022;SDS011;1521;53.584;9.938;2023-04-03T03:38:08;16.27;;;3.50;;
3022;SDS011;1521;53.584;9.938;2023-04-03T03:40:34;13.57;;;3.67;;
3022;SDS011;1521;53.584;9.938;2023-04-03T03:42:59;8.37;;;3.47;;
3022;SDS011;1521;53.584;9.938;2023-04-03T03:45:25;11.60;;;3.50;;
3022;SDS011;1521;53.584;9.938;2023-04-03T03:47:50;5.70;;;3.20;;
3022;SDS011;1521;53.584;9.938;2023-04-03T03:50:16;6.93;;;3.57;;
3022;SDS011;1521;53.584;9.938;2023-04-03T03:52:41;8.17;;;3.10;;
3022;SDS011;1521;53.584;9.938;2023-04-03T03:55:07;7.30;;;3.30;;
3022;SDS011;1521;53.584;9.938;2023-04-03T03:57:33;17.80;;;4.30;;
3022;SDS011;1521;53.584;9.938;2023-04-03T03:59:58;8.97;;;3.87;;
3022;SDS011;1521;53.584;9.938;2023-04-03T04:02:24;11.13;;;3.80;;
3022;SDS011;1521;53.584;9.938;2023-04-03T04:04:50;11.53;;;4.00;;
3022;SDS011;1521;53.584;9.938;2023-04-03T04:07:15;13.17;;;3.80;;
3022;SDS011;1521;53.584;9.938;2023-04-03T04:09:41;8.10;;;3.50;;
3022;SDS011;1521;53.584;9.938;2023-04-03T04:12:07;9.73;;;3.67;;
3022;SDS011;1521;53.584;9.938;2023-04-03T04:14:32;13.57;;;4.50;;
3022;SDS011;1521;53.584;9.938;2023-04-03T04:16:58;10.40;;;3.47;;
3022;SDS011;1521;53.584;9.938;2023-04-03T04:19:23;7.30;;;4.10;;
3022;SDS011;1521;53.584;9.938;2023-04-03T04:21:49;12.37;;;3.90;;
3022;SDS011;1521;53.584;9.938;2023-04-03T04:24:15;11.93;;;4.40;;
3022;SDS011;1521;53.584;9.938;2023-04-03T04:26:41;9.00;;;3.90;;
3022;SDS011;1521;53.584;9.938;2023-04-03T04:29:08;11.40;;;4.10;;
3022;SDS011;1521;53.584;9.938;2023-04-03T04:31:34;11.27;;;3.93;;
3022;SDS011;1521;53.584;9.938;2023-04-03T04:34:00;9.27;;;3.87;;
3022;SDS011;1521;53.584;9.938;2023-04-03T04:36:26;10.27;;;4.20;;
3022;SDS011;1521;53.584;9.938;2023-04-03T04:38:51;10.17;;;4.23;;
3022;SDS011;1521;53.584;9.938;2023-04-03T04:41:20;9.37;;;3.73;;
3022;SDS011;1521;53.584;9.938;2023-04-03T04:43:49;9.77;;;3.90;;
3022;SDS011;1521;53.584;9.938;2023-04-03T04:46:16;11.73;;;3.53;;
3022;SDS011;1521;53.584;9.938;2023-04-03T04:48:42;12.30;;;4.47;;
3022;SDS011;1521;53.584;9.938;2023-04-03T04:51:08;8.27;;;4.00;;
3022;SDS011;1521;53.584;9.938;2023-04-03T04:53:34;12.30;;;4.40;;
3022;SDS011;1521;53.584;9.938;2023-04-03T04:55:59;14.10;;;4.63;;
3022;SDS011;1521;53.584;9.938;2023-04-03T04:58:25;9.60;;;5.00;;
3022;SDS011;1521;53.584;9.938;2023-04-03T05:01:03;13.60;;;4.63;;
3022;SDS011;1521;53.584;9.938;2023-04-03T05:03:30;10.83;;;4.73;;
3022;SDS011;1521;53.584;9.938;2023-04-03T05:05:56;12.90;;;4.80;;
3022;SDS011;1521;53.584;9.938;2023-04-03T05:08:22;11.63;;;4.70;;
3022;SDS011;1521;53.584;9.938;2023-04-03T05:10:48;15.73;;;4.50;;
3022;SDS011;1521;53.584;9.938;2023-04-03T05:13:13;10.30;;;5.03;;
3022;SDS011;1521;53.584;9.938;2023-04-03T05:15:39;12.03;;;4.50;;
3022;SDS011;1521;53.584;9.938;2023-04-03T05:18:05;9.50;;;4.53;;
3022;SDS011;1521;53.584;9.938;2023-04-03T05:20:31;8.13;;;3.90;;
3022;SDS011;1521;53.584;9.938;2023-04-03T05:22:57;15.90;;;4.80;;
3022;SDS011;1521;53.584;9.938;2023-04-03T05:25:23;7.80;;;4.20;;
3022;SDS011;1521;53.584;9.938;2023-04-03T05:27:49;10.70;;;4.50;;
3022;SDS011;1521;53.584;9.938;2023-04-03T05:30:16;12.20;;;4.77;;
3022;SDS011;1521;53.584;9.938;2023-04-03T05:32:42;10.00;;;4.63;;
3022;SDS011;1521;53.584;9.938;2023-04-03T05:35:07;9.37;;;4.37;;
3022;SDS011;1521;53.584;9.938;2023-04-03T05:37:34;18.37;;;4.40;;
3022;SDS011;1521;53.584;9.938;2023-04-03T05:40:00;8.80;;;4.83;;
3022;SDS011;1521;53.584;9.938;2023-04-03T05:42:26;10.47;;;4.77;;
3022;SDS011;1521;53.584;9.938;2023-04-03T05:44:52;12.57;;;4.73;;
3022;SDS011;1521;53.584;9.938;2023-04-03T05:47:18;13.20;;;5.27;;
3022;SDS011;1521;53.584;9.938;2023-04-03T05:49:44;12.90;;;5.10;;
3022;SDS011;1521;53.584;9.938;2023-04-03T05:52:31;10.53;;;4.67;;
3022;SDS011;1521;53.584;9.938;2023-04-03T05:55:03;7.90;;;4.23;;
3022;SDS011;1521;53.584;9.938;2023-04-03T05:57:29;14.73;;;5.10;;
3022;SDS011;1521;53.584;9.938;2023-04-03T05:59:54;10.90;;;5.20;;
3022;SDS011;1521;53.584;9.938;2023-04-03T06:02:21;7.07;;;4.33;;
3022;SDS011;1521;53.584;9.938;2023-04-03T06:04:47;9.63;;;5.00;;
3022;SDS011;1521;53.584;9.938;2023-04-03T06:07:17;11.27;;;5.67;;
3022;SDS011;1521;53.584;9.938;2023-04-03T06:09:46;11.80;;;4.90;;
3022;SDS011;1521;53.584;9.938;2023-04-03T06:12:12;14.77;;;5.00;;
3022;SDS011;1521;53.584;9.938;2023-04-03T06:14:37;14.53;;;5.47;;
3022;SDS011;1521;53.584;9.938;2023-04-03T06:17:03;13.80;;;5.53;;
3022;SDS011;1521;53.584;9.938;2023-04-03T06:19:29;10.87;;;5.57;;
3022;SDS011;1521;53.584;9.938;2023-04-03T06:21:55;15.43;;;5.50;;
3022;SDS011;1521;53.584;9.938;2023-04-03T06:24:21;13.90;;;5.90;;
3022;SDS011;1521;53.584;9.938;2023-04-03T06:26:49;18.70;;;5.73;;
3022;SDS011;1521;53.584;9.938;2023-04-03T06:29:16;13.90;;;5.00;;
3022;SDS011;1521;53.584;9.938;2023-04-03T06:31:42;11.73;;;4.80;;
3022;SDS011;1521;53.584;9.938;2023-04-03T06:34:07;10.63;;;5.10;;
3022;SDS011;1521;53.584;9.938;2023-04-03T06:36:33;12.03;;;5.13;;
3022;SDS011;1521;53.584;9.938;2023-04-03T06:38:59;12.33;;;4.70;;
3022;SDS011;1521;53.584;9.938;2023-04-03T06:41:25;10.37;;;4.67;;
3022;SDS011;1521;53.584;9.938;2023-04-03T06:43:51;14.53;;;4.20;;
3022;SDS011;1521;53.584;9.938;2023-04-03T06:46:18;10.30;;;4.37;;
3022;SDS011;1521;53.584;9.938;2023-04-03T06:48:45;13.20;;;4.70;;
3022;SDS011;1521;53.584;9.938;2023-04-03T06:51:32;8.77;;;3.73;;
3022;SDS011;1521;53.584;9.938;2023-04-03T06:53:57;9.77;;;3.50;;
3022;SDS011;1521;53.584;9.938;2023-04-03T06:56:25;7.47;;;4.00;;
3022;SDS011;1521;53.584;9.938;2023-04-03T06:58:54;12.30;;;4.23;;
3022;SDS011;1521;53.584;9.938;2023-04-03T07:01:23;10.50;;;3.57;;
3022;SDS011;1521;53.584;9.938;2023-04-03T07:03:51;7.93;;;3.50;;
3022;SDS011;1521;53.584;9.938;2023-04-03T07:06:17;8.50;;;3.43;;
3022;SDS011;1521;53.584;9.938;2023-04-03T07:08:44;9.03;;;3.30;;
3022;SDS011;1521;53.584;9.938;2023-04-03T07:11:11;8.13;;;2.93;;
3022;SDS011;1521;53.584;9.938;2023-04-03T07:13:37;3.47;;;2.60;;
3022;SDS011;1521;53.584;9.938;2023-04-03T07:16:03;5.10;;;2.87;;
3022;SDS011;1521;53.584;9.938;2023-04-03T07:18:30;8.73;;;3.17;;
3022;SDS011;1521;53.584;9.938;2023-04-03T07:20:57;6.73;;;2.70;;
3022;SDS011;1521;53.584;9.938;2023-04-03T07:23:23;4.37;;;1.90;;
3022;SDS011;1521;53.584;9.938;2023-04-03T07:25:50;7.43;;;2.23;;
3022;SDS011;1521;53.584;9.938;2023-04-03T07:28:16;2.80;;;1.77;;
3022;SDS011;1521;53.584;9.938;2023-04-03T07:30:47;3.50;;;1.87;;
3022;SDS011;1521;53.584;9.938;2023-04-03T07:33:15;7.70;;;2.20;;
3022;SDS011;1521;53.584;9.938;2023-04-03T07:35:43;6.10;;;2.13;;
3022;SDS011;1521;53.584;9.938;2023-04-03T07:38:10;6.80;;;1.40;;
3022;SDS011;1521;53.584;9.938;2023-04-03T07:40:36;4.47;;;1.60;;
3022;SDS011;1521;53.584;9.938;2023-04-03T07:43:02;6.10;;;2.00;;
3022;SDS011;1521;53.584;9.938;2023-04-03T07:45:29;5.37;;;1.80;;
3022;SDS011;1521;53.584;9.938;2023-04-03T07:47:55;3.40;;;1.20;;
3022;SDS011;1521;53.584;9.938;2023-04-03T07:50:20;8.93;;;1.40;;
3022;SDS011;1521;53.584;9.938;2023-04-03T07:52:46;5.33;;;1.40;;
3022;SDS011;1521;53.584;9.938;2023-04-03T07:55:12;2.50;;;1.73;;
3022;SDS011;1521;53.584;9.938;2023-04-03T07:57:38;4.53;;;1.50;;
3022;SDS011;1521;53.584;9.938;2023-04-03T08:00:04;4.43;;;1.37;;
3022;SDS011;1521;53.584;9.938;2023-04-03T08:02:30;2.50;;;1.40;;
3022;SDS011;1521;53.584;9.938;2023-04-03T08:04:57;4.70;;;1.53;;
3022;SDS011;1521;53.584;9.938;2023-04-03T08:07:23;3.30;;;1.40;;
3022;SDS011;1521;53.584;9.938;2023-04-03T08:09:49;5.60;;;1.67;;
3022;SDS011;1521;53.584;9.938;2023-04-03T08:12:15;7.33;;;1.57;;
3022;SDS011;1521;53.584;9.938;2023-04-03T08:14:41;3.10;;;1.40;;
3022;SDS011;1521;53.584;9.938;2023-04-03T08:17:07;5.93;;;1.60;;
3022;SDS011;1521;53.584;9.938;2023-04-03T08:19:36;5.73;;;1.80;;
3022;SDS011;1521;53.584;9.938;2023-04-03T08:22:02;7.27;;;1.40;;
3022;SDS011;1521;53.584;9.938;2023-04-03T08:24:28;3.73;;;1.67;;
3022;SDS011;1521;53.584;9.938;2023-04-03T08:26:54;4.33;;;1.27;;
3022;SDS011;1521;53.584;9.938;2023-04-03T08:29:20;3.00;;;1.37;;
3022;SDS011;1521;53.584;9.938;2023-04-03T08:31:46;4.27;;;1.40;;
3022;SDS011;1521;53.584;9.938;2023-04-03T08:34:13;8.03;;;1.30;;
3022;SDS011;1521;53.584;9.938;2023-04-03T08:36:39;2.57;;;1.27;;
3022;SDS011;1521;53.584;9.938;2023-04-03T08:39:05;2.40;;;1.40;;
3022;SDS011;1521;53.584;9.938;2023-04-03T08:41:35;3.83;;;1.60;;
3022;SDS011;1521;53.584;9.938;2023-04-03T08:46:56;5.23;;;1.60;;
3022;SDS011;1521;53.584;9.938;2023-04-03T08:49:33;6.40;;;1.57;;
3022;SDS011;1521;53.584;9.938;2023-04-03T08:52:08;4.00;;;1.43;;
3022;SDS011;1521;53.584;9.938;2023-04-03T08:54:41;1.90;;;1.47;;
3022;SDS011;1521;53.584;9.938;2023-04-03T08:57:30;4.70;;;1.40;;
3022;SDS011;1521;53.584;9.938;2023-04-03T09:00:00;2.40;;;1.33;;
3022;SDS011;1521;53.584;9.938;2023-04-03T09:02:46;4.40;;;1.20;;
3022;SDS011;1521;53.584;9.938;2023-04-03T09:05:17;4.23;;;1.63;;
3022;SDS011;1521;53.584;9.938;2023-04-03T09:08:31;3.00;;;1.70;;
3022;SDS011;1521;53.584;9.938;2023-04-03T09:10:49;3.30;;;1.27;;
3022;SDS011;1521;53.584;9.938;2023-04-03T09:16:20;4.70;;;1.60;;
3022;SDS011;1521;53.584;9.938;2023-04-03T09:18:53;3.10;;;1.50;;
3022;SDS011;1521;53.584;9.938;2023-04-03T09:21:37;3.07;;;1.17;;
3022;SDS011;1521;53.584;9.938;2023-04-03T09:24:04;1.83;;;1.47;;
3022;SDS011;1521;53.584;9.938;2023-04-03T09:29:22;4.37;;;1.43;;
3022;SDS011;1521;53.584;9.938;2023-04-03T09:31:49;5.17;;;1.57;;
3022;SDS011;1521;53.584;9.938;2023-04-03T09:34:26;1.73;;;1.30;;
3022;SDS011;1521;53.584;9.938;2023-04-03T09:36:55;7.00;;;1.50;;
3022;SDS011;1521;53.584;9.938;2023-04-03T09:39:24;2.17;;;1.13;;
3022;SDS011;1521;53.584;9.938;2023-04-03T09:41:56;3.17;;;1.47;;
3022;SDS011;1521;53.584;9.938;2023-04-03T09:44:40;1.73;;;0.97;;
3022;SDS011;1521;53.584;9.938;2023-04-03T09:47:21;3.30;;;1.10;;
3022;SDS011;1521;53.584;9.938;2023-04-03T09:49:48;2.63;;;1.50;;
3022;SDS011;1521;53.584;9.938;2023-04-03T09:52:23;2.60;;;1.10;;
3022;SDS011;1521;53.584;9.938;2023-04-03T09:54:50;2.40;;;1.17;;
3022;SDS011;1521;53.584;9.938;2023-04-03T09:57:16;2.80;;;1.17;;
3022;SDS011;1521;53.584;9.938;2023-04-03T09:59:58;1.73;;;1.07;;
3022;SDS011;1521;53.584;9.938;2023-04-03T10:04:59;2.80;;;1.30;;
3022;SDS011;1521;53.584;9.938;2023-04-03T10:07:29;4.37;;;1.20;;
3022;SDS011;1521;53.584;9.938;2023-04-03T10:09:58;4.20;;;1.37;;
3022;SDS011;1521;53.584;9.938;2023-04-03T10:13:03;2.57;;;1.07;;
3022;SDS011;1521;53.584;9.938;2023-04-03T10:15:32;4.70;;;1.40;;
3022;SDS011;1521;53.584;9.938;2023-04-03T10:18:08;3.33;;;1.20;;
3022;SDS011;1521;53.584;9.938;2023-04-03T10:20:48;3.07;;;1.30;;
3022;SDS011;1521;53.584;9.938;2023-04-03T10:29:13;2.43;;;1.30;;
3022;SDS011;1521;53.584;9.938;2023-04-03T10:34:18;2.83;;;1.43;;
3022;SDS011;1521;53.584;9.938;2023-04-03T10:39:46;2.60;;;1.20;;
3022;SDS011;1521;53.584;9.938;2023-04-03T10:42:44;2.63;;;1.03;;
3022;SDS011;1521;53.584;9.938;2023-04-03T11:01:08;3.07;;;1.53;;
3022;SDS011;1521;53.584;9.938;2023-04-03T11:03:44;5.10;;;1.27;;
3022;SDS011;1521;53.584;9.938;2023-04-03T11:06:15;6.20;;;1.50;;
3022;SDS011;1521;53.584;9.938;2023-04-03T11:09:26;4.63;;;1.50;;
3022;SDS011;1521;53.584;9.938;2023-04-03T11:11:46;1.93;;;1.00;;
3022;SDS011;1521;53.584;9.938;2023-04-03T11:19:49;5.40;;;1.20;;
3022;SDS011;1521;53.584;9.938;2023-04-03T11:22:32;1.80;;;1.20;;
3022;SDS011;1521;53.584;9.938;2023-04-03T11:25:04;6.30;;;1.73;;
3022;SDS011;1521;53.584;9.938;2023-04-03T11:35:45;3.60;;;1.30;;
3022;SDS011;1521;53.584;9.938;2023-04-03T11:38:22;3.43;;;1.60;;
3022;SDS011;1521;53.584;9.938;2023-04-03T11:40:54;3.33;;;1.33;;
3022;SDS011;1521;53.584;9.938;2023-04-03T11:43:26;4.30;;;1.40;;
3022;SDS011;1521;53.584;9.938;2023-04-03T11:50:59;5.90;;;1.47;;
3022;SDS011;1521;53.584;9.938;2023-04-03T11:53:27;3.07;;;1.47;;
3022;SDS011;1521;53.584;9.938;2023-04-03T11:58:33;4.60;;;1.50;;
3022;SDS011;1521;53.584;9.938;2023-04-03T12:01:01;2.33;;;1.30;;
3022;SDS011;1521;53.584;9.938;2023-04-03T12:03:30;2.70;;;1.40;;
3022;SDS011;1521;53.584;9.938;2023-04-03T12:13:34;3.73;;;1.30;;
3022;SDS011;1521;53.584;9.938;2023-04-03T12:16:00;5.50;;;1.23;;
3022;SDS011;1521;53.584;9.938;2023-04-03T12:21:22;1.20;;;1.07;;
3022;SDS011;1521;53.584;9.938;2023-04-03T12:26:48;3.43;;;1.60;;
3022;SDS011;1521;53.584;9.938;2023-04-03T12:40:30;2.30;;;1.50;;
3022;SDS011;1521;53.584;9.938;2023-04-03T12:46:33;3.00;;;1.37;;
3022;SDS011;1521;53.584;9.938;2023-04-03T12:48:55;3.47;;;1.10;;
3022;SDS011;1521;53.584;9.938;2023-04-03T12:53:56;3.70;;;1.27;;
3022;SDS011;1521;53.584;9.938;2023-04-03T12:56:30;3.70;;;1.50;;
3022;SDS011;1521;53.584;9.938;2023-04-03T13:01:55;2.90;;;1.40;;
3022;SDS011;1521;53.584;9.938;2023-04-03T13:04:22;1.90;;;1.40;;
3022;SDS011;1521;53.584;9.938;2023-04-03T13:06:48;2.07;;;1.30;;
3022;SDS011;1521;53.584;9.938;2023-04-03T13:09:21;1.90;;;1.40;;
3022;SDS011;1521;53.584;9.938;2023-04-03T13:11:49;3.67;;;1.10;;
3022;SDS011;1521;53.584;9.938;2023-04-03T13:14:19;3.77;;;1.40;;
3022;SDS011;1521;53.584;9.938;2023-04-03T13:16:52;5.07;;;1.47;;
3022;SDS011;1521;53.584;9.938;2023-04-03T13:19:19;2.30;;;1.10;;
3022;SDS011;1521;53.584;9.938;2023-04-03T13:21:45;1.77;;;1.37;;
3022;SDS011;1521;53.584;9.938;2023-04-03T13:24:11;2.87;;;1.50;;
3022;SDS011;1521;53.584;9.938;2023-04-03T13:26:37;3.20;;;1.50;;
3022;SDS011;1521;53.584;9.938;2023-04-03T13:29:06;2.63;;;1.33;;
3022;SDS011;1521;53.584;9.938;2023-04-03T13:31:42;3.10;;;1.50;;
3022;SDS011;1521;53.584;9.938;2023-04-03T13:34:18;4.30;;;1.20;;
3022;SDS011;1521;53.584;9.938;2023-04-03T13:36:55;3.10;;;2.10;;
3022;SDS011;1521;53.584;9.938;2023-04-03T13:39:24;2.47;;;1.20;;
3022;SDS011;1521;53.584;9.938;2023-04-03T13:42:35;2.87;;;1.13;;
3022;SDS011;1521;53.584;9.938;2023-04-03T13:44:47;2.43;;;1.10;;
3022;SDS011;1521;53.584;9.938;2023-04-03T13:47:20;6.83;;;1.40;;
3022;SDS011;1521;53.584;9.938;2023-04-03T13:52:41;3.90;;;1.30;;
3022;SDS011;1521;53.584;9.938;2023-04-03T13:55:26;3.00;;;1.13;;
3022;SDS011;1521;53.584;9.938;2023-04-03T13:57:58;3.97;;;1.00;;
3022;SDS011;1521;53.584;9.938;2023-04-03T14:03:42;2.37;;;1.33;;
3022;SDS011;1521;53.584;9.938;2023-04-03T14:06:22;2.37;;;1.20;;
3022;SDS011;1521;53.584;9.938;2023-04-03T14:08:48;3.57;;;1.93;;
3022;SDS011;1521;53.584;9.938;2023-04-03T14:11:16;3.13;;;1.43;;
3022;SDS011;1521;53.584;9.938;2023-04-03T14:13:44;2.17;;;1.43;;
3022;SDS011;1521;53.584;9.938;2023-04-03T14:16:14;2.33;;;1.47;;
3022;SDS011;1521;53.584;9.938;2023-04-03T14:18:42;3.17;;;1.73;;
3022;SDS011;1521;53.584;9.938;2023-04-03T14:21:10;5.90;;;1.40;;
3022;SDS011;1521;53.584;9.938;2023-04-03T14:23:37;1.90;;;1.20;;
3022;SDS011;1521;53.584;9.938;2023-04-03T14:26:04;1.70;;;1.20;;
3022;SDS011;1521;53.584;9.938;2023-04-03T14:28:34;2.13;;;1.40;;
3022;SDS011;1521;53.584;9.938;2023-04-03T14:31:00;3.73;;;1.40;;
3022;SDS011;1521;53.584;9.938;2023-04-03T14:33:26;3.00;;;1.50;;
3022;SDS011;1521;53.584;9.938;2023-04-03T14:35:54;3.43;;;1.87;;
3022;SDS011;1521;53.584;9.938;2023-04-03T14:38:21;6.73;;;1.73;;
3022;SDS011;1521;53.584;9.938;2023-04-03T14:40:52;2.40;;;1.60;;
3022;SDS011;1521;53.584;9.938;2023-04-03T14:43:18;3.50;;;1.70;;
3022;SDS011;1521;53.584;9.938;2023-04-03T14:45:45;2.37;;;1.23;;
3022;SDS011;1521;53.584;9.938;2023-04-03T14:48:21;2.40;;;1.53;;
3022;SDS011;1521;53.584;9.938;2023-04-03T14:50:49;3.87;;;1.67;;
3022;SDS011;1521;53.584;9.938;2023-04-03T14:53:16;3.40;;;1.47;;
3022;SDS011;1521;53.584;9.938;2023-04-03T14:55:46;5.37;;;1.60;;
3022;SDS011;1521;53.584;9.938;2023-04-03T14:58:12;3.03;;;1.40;;
3022;SDS011;1521;53.584;9.938;2023-04-03T15:00:40;4.63;;;1.30;;
3022;SDS011;1521;53.584;9.938;2023-04-03T15:03:05;2.50;;;1.20;;
3022;SDS011;1521;53.584;9.938;2023-04-03T15:05:35;2.77;;;1.10;;
3022;SDS011;1521;53.584;9.938;2023-04-03T15:08:02;5.37;;;1.50;;
3022;SDS011;1521;53.584;9.938;2023-04-03T15:10:28;3.53;;;1.50;;
3022;SDS011;1521;53.584;9.938;2023-04-03T15:12:55;5.57;;;1.77;;
3022;SDS011;1521;53.584;9.938;2023-04-03T15:15:22;3.93;;;1.70;;
3022;SDS011;1521;53.584;9.938;2023-04-03T15:17:50;3.13;;;1.50;;
3022;SDS011;1521;53.584;9.938;2023-04-03T15:20:21;5.37;;;1.60;;
3022;SDS011;1521;53.584;9.938;2023-04-03T15:22:48;5.97;;;1.70;;
3022;SDS011;1521;53.584;9.938;2023-04-03T15:25:14;4.30;;;1.43;;
3022;SDS011;1521;53.584;9.938;2023-04-03T15:27:41;6.40;;;1.63;;
3022;SDS011;1521;53.584;9.938;2023-04-03T15:30:08;3.60;;;1.40;;
3022;SDS011;1521;53.584;9.938;2023-04-03T15:32:37;7.07;;;2.30;;
3022;SDS011;1521;53.584;9.938;2023-04-03T15:35:03;4.03;;;1.60;;
3022;SDS011;1521;53.584;9.938;2023-04-03T15:37:29;5.03;;;1.60;;
3022;SDS011;1521;53.584;9.938;2023-04-03T15:39:55;2.33;;;1.63;;
3022;SDS011;1521;53.584;9.938;2023-04-03T15:42:20;4.30;;;1.47;;
3022;SDS011;1521;53.584;9.938;2023-04-03T15:44:46;3.70;;;1.60;;
3022;SDS011;1521;53.584;9.938;2023-04-03T15:47:12;2.50;;;1.20;;
3022;SDS011;1521;53.584;9.938;2023-04-03T15:49:37;3.93;;;1.70;;
3022;SDS011;1521;53.584;9.938;2023-04-03T15:52:03;3.27;;;1.47;;
3022;SDS011;1521;53.584;9.938;2023-04-03T15:54:29;3.30;;;2.00;;
3022;SDS011;1521;53.584;9.938;2023-04-03T15:56:55;5.80;;;1.50;;
3022;SDS011;1521;53.584;9.938;2023-04-03T15:59:21;3.57;;;2.17;;
3022;SDS011;1521;53.584;9.938;2023-04-03T16:01:47;3.53;;;1.50;;
3022;SDS011;1521;53.584;9.938;2023-04-03T16:04:15;1.70;;;1.33;;
3022;SDS011;1521;53.584;9.938;2023-04-03T16:06:41;6.37;;;2.27;;
3022;SDS011;1521;53.584;9.938;2023-04-03T16:09:07;2.90;;;1.63;;
3022;SDS011;1521;53.584;9.938;2023-04-03T16:11:33;4.17;;;1.43;;
3022;SDS011;1521;53.584;9.938;2023-04-03T16:14:01;3.67;;;1.57;;
3022;SDS011;1521;53.584;9.938;2023-04-03T16:16:26;5.07;;;1.57;;
3022;SDS011;1521;53.584;9.938;2023-04-03T16:18:53;2.90;;;1.80;;
3022;SDS011;1521;53.584;9.938;2023-04-03T16:21:20;5.37;;;1.93;;
3022;SDS011;1521;53.584;9.938;2023-04-03T16:23:46;4.63;;;1.90;;
3022;SDS011;1521;53.584;9.938;2023-04-03T16:26:12;2.97;;;1.37;;
3022;SDS011;1521;53.584;9.938;2023-04-03T16:28:38;6.10;;;1.87;;
3022;SDS011;1521;53.584;9.938;2023-04-03T16:31:03;3.27;;;1.50;;
3022;SDS011;1521;53.584;9.938;2023-04-03T16:33:31;2.90;;;1.60;;
3022;SDS011;1521;53.584;9.938;2023-04-03T16:35:56;3.30;;;1.40;;
3022;SDS011;1521;53.584;9.938;2023-04-03T16:38:22;2.93;;;1.57;;
3022;SDS011;1521;53.584;9.938;2023-04-03T16:40:48;5.80;;;1.53;;
3022;SDS011;1521;53.584;9.938;2023-04-03T16:43:14;5.37;;;1.80;;
3022;SDS011;1521;53.584;9.938;2023-04-03T16:45:40;4.80;;;1.90;;
3022;SDS011;1521;53.584;9.938;2023-04-03T16:48:06;4.60;;;2.10;;
3022;SDS011;1521;53.584;9.938;2023-04-03T16:50:32;3.13;;;1.40;;
3022;SDS011;1521;53.584;9.938;2023-04-03T16:52:57;5.57;;;2.00;;
3022;SDS011;1521;53.584;9.938;2023-04-03T16:55:23;5.57;;;1.70;;
3022;SDS011;1521;53.584;9.938;2023-04-03T16:57:48;4.03;;;1.30;;
3022;SDS011;1521;53.584;9.938;2023-04-03T17:00:14;3.50;;;1.90;;
3022;SDS011;1521;53.584;9.938;2023-04-03T17:02:40;6.00;;;2.00;;